Aérodrome :







RETROUVEZ-NOUS SUR...

 
LOGIN :

S'inscrire | Disclaimer

   EN    FR    IT 

 









Légende :    VFR   VFR Marginal   IFR   IFR Intensif   IFR Très Intensif
Visi : 
Plafond : 
>= 8 km
>= 3000ft
5 à 8 km
1000 à 3000 ft
1500m à 5 km
500 à 1000 ft
800 à 1500m
200 à 500 ft
< 800m
< 200 ft
Symboles :   Orages  Brouillard  Fortes neiges  Fortes précipitations  Vent > 20 kt






- Altitude de l'aérodrome : 48 ft
- Code IATA : REK


BIRK - Reykjavik

DERNIER METAR :
  • 181800Z 09009KT 9999 FEW036 M00/M03 Q1013 R13/910138

METARs EXPIRÉS :
  • 181700Z 08009KT CAVOK M01/M04 Q1014 R13/910138
  • 181600Z 08009KT 9999 FEW028 BKN052 M01/M03 Q1014 R13/910138

TAF TAF BIRK
Valide du 18 à 18h jusqu'au 19 à 18h UTC


181639Z 1818/1918 12010KT 9999 SCT050 TX08/1908Z TNM02/1818Z
BECMG 1821/1823 14022G33KT RA BKN020 OVC030
BECMG 1900/1902 14037G50KT 8000 +RA BKN014 OVC022
BECMG 1903/1905 18028G40KT 6000 -RADZ
BECMG 1906/1908 9999 NSW SCT030 BKN050
TEMPO 1908/1916 20038G48KT 5000 SHRA BKN013



MET'MAP, la Météo Aéronautique d'un coup d'oeil ! - Copyright ORBIFLY Décembre 2007 - Disclaimer

ORBIFLY MET'MAP TEAM :

Programmation & Développement : Alexandra Zaïnal
Sur une idée originale de : Baudouin d'Aumeries
Assistance à la programmation : Marc-Olivier Méhu
Soutien technique & logistique : Manuel Goepfert

Contact : metmap@orbifly.com




SOURCES & CREDITS :

   NOAA